Metar z połowy godziny Komunikat METAR ze strony awiacja.imgw.pl Metar G30 EPPO METAR EPPO 231230Z 25010KT 9999 -SHRA FEW033 SCT039CB 21/12 Q1010 R10/29//95 =